createdAt,value
2018-02-11T00:00:51.120Z,98197
2018-02-11T00:03:20.036Z,98196
2018-02-11T00:05:48.177Z,98191
2018-02-11T00:08:17.098Z,98187
2018-02-11T00:10:46.305Z,98189
2018-02-11T00:13:14.461Z,98192
2018-02-11T00:15:42.592Z,98185
2018-02-11T00:18:10.741Z,98188
2018-02-11T00:20:38.892Z,98189
2018-02-11T00:23:18.829Z,98182
2018-02-11T00:25:46.969Z,98186
2018-02-11T00:28:15.121Z,98176
2018-02-11T00:30:51.663Z,98180
2018-02-11T00:33:19.808Z,98179
2018-02-11T00:35:47.945Z,98177
2018-02-11T00:38:16.097Z,98175
2018-02-11T00:40:51.498Z,98183
2018-02-11T00:43:19.640Z,98179
2018-02-11T00:45:47.774Z,98172
2018-02-11T00:48:16.694Z,98174
2018-02-11T00:50:44.827Z,98174
2018-02-11T00:53:12.976Z,98161
2018-02-11T00:55:41.877Z,98154
2018-02-11T00:58:10.035Z,98156
2018-02-11T01:00:42.430Z,98145
2018-02-11T01:03:10.576Z,98144
2018-02-11T01:05:39.473Z,98136
2018-02-11T01:08:08.391Z,98132
2018-02-11T01:10:37.486Z,98128
2018-02-11T01:13:05.636Z,98132
2018-02-11T01:15:33.797Z,98123
2018-02-11T01:18:02.757Z,98117
2018-02-11T01:20:30.889Z,98113
2018-02-11T01:22:59.036Z,98109
2018-02-11T01:25:27.928Z,98108
2018-02-11T01:27:56.851Z,98109
2018-02-11T01:30:32.295Z,98099
2018-02-11T01:33:00.446Z,98098
2018-02-11T01:35:28.584Z,98098
2018-02-11T01:37:56.732Z,98088
2018-02-11T01:40:32.066Z,98086
2018-02-11T01:43:00.228Z,98096
2018-02-11T01:45:28.365Z,98097
2018-02-11T01:47:56.516Z,98095
2018-02-11T01:50:24.646Z,98083
2018-02-11T01:52:52.784Z,98080
2018-02-11T01:55:21.708Z,98081
2018-02-11T01:57:49.833Z,98069
2018-02-11T02:00:17.981Z,98069
2018-02-11T02:02:46.124Z,98066
2018-02-11T02:05:14.276Z,98063
2018-02-11T02:07:43.209Z,98056
2018-02-11T02:10:15.069Z,98047
2018-02-11T02:12:43.204Z,98051
2018-02-11T02:15:11.368Z,98032
2018-02-11T02:17:39.500Z,98028
2018-02-11T02:20:09.604Z,98018
2018-02-11T02:22:37.734Z,98026
2018-02-11T02:25:06.645Z,98028
2018-02-11T02:27:34.772Z,98015
2018-02-11T02:30:04.866Z,98024
2018-02-11T02:32:32.996Z,98017
2018-02-11T02:35:01.153Z,98012
2018-02-11T02:37:30.048Z,97999
2018-02-11T02:40:09.025Z,98010
2018-02-11T02:42:37.148Z,98007
2018-02-11T02:45:06.061Z,97995
2018-02-11T02:47:34.189Z,97996
2018-02-11T02:50:07.037Z,97997
2018-02-11T02:52:35.171Z,97990
2018-02-11T02:55:03.360Z,97993
2018-02-11T02:57:31.494Z,97986
2018-02-11T03:00:03.217Z,97984
2018-02-11T03:02:31.353Z,97975
2018-02-11T03:04:59.543Z,97983
2018-02-11T03:07:27.681Z,97965
2018-02-11T03:09:57.525Z,97976
2018-02-11T03:12:25.677Z,97977
2018-02-11T03:14:54.608Z,97960
2018-02-11T03:17:22.761Z,97958
2018-02-11T03:19:54.217Z,97954
2018-02-11T03:22:22.368Z,97947
2018-02-11T03:24:51.265Z,97952
2018-02-11T03:27:19.416Z,97946
2018-02-11T03:29:52.133Z,97951
2018-02-11T03:32:20.285Z,97947
2018-02-11T03:34:49.186Z,97941
2018-02-11T03:37:17.332Z,97936
2018-02-11T03:39:45.460Z,97931
2018-02-11T03:42:13.614Z,97933
2018-02-11T03:44:41.745Z,97924
2018-02-11T03:47:09.894Z,97925
2018-02-11T03:49:41.413Z,97918
2018-02-11T03:52:09.605Z,97914
2018-02-11T03:54:37.737Z,97918
2018-02-11T03:57:06.658Z,97918
2018-02-11T03:59:34.792Z,97907
2018-02-11T04:02:03.704Z,97897
2018-02-11T04:04:31.835Z,97894
2018-02-11T04:06:59.984Z,97888
2018-02-11T04:09:32.125Z,97885
2018-02-11T04:12:00.309Z,97887
2018-02-11T04:14:29.204Z,97882
2018-02-11T04:16:57.326Z,97876
2018-02-11T04:19:26.240Z,97883
2018-02-11T04:21:54.368Z,97879
2018-02-11T04:24:22.513Z,97879
2018-02-11T04:26:50.640Z,97870
2018-02-11T04:29:18.828Z,97869
2018-02-11T04:31:46.952Z,97860
2018-02-11T04:34:15.089Z,97845
2018-02-11T04:36:43.212Z,97853
2018-02-11T04:39:11.361Z,97854
2018-02-11T04:41:39.488Z,97851
2018-02-11T04:44:07.632Z,97850
2018-02-11T04:46:35.760Z,97844
2018-02-11T04:49:04.864Z,97846
2018-02-11T04:51:32.998Z,97839
2018-02-11T04:54:01.915Z,97841
2018-02-11T04:56:30.045Z,97833
2018-02-11T04:59:00.949Z,97828
2018-02-11T05:01:29.080Z,97816
2018-02-11T05:03:57.237Z,97816
2018-02-11T05:06:26.136Z,97804
2018-02-11T05:08:55.432Z,97803
2018-02-11T05:11:24.330Z,97795
2018-02-11T05:13:52.485Z,97794
2018-02-11T05:16:21.393Z,97791
2018-02-11T05:18:49.553Z,97782
2018-02-11T05:21:17.684Z,97779
2018-02-11T05:23:45.836Z,97789
2018-02-11T05:26:13.977Z,97788
2018-02-11T05:28:55.844Z,97778
2018-02-11T05:31:23.976Z,97776
2018-02-11T05:33:52.122Z,97765
2018-02-11T05:36:21.017Z,97771
2018-02-11T05:38:49.161Z,97773
2018-02-11T05:41:17.290Z,97772
2018-02-11T05:43:45.445Z,97765
2018-02-11T05:46:13.573Z,97762
2018-02-11T05:48:41.720Z,97772
2018-02-11T05:51:09.844Z,97757
2018-02-11T05:53:38.759Z,97757
2018-02-11T05:56:06.885Z,97756
2018-02-11T05:58:51.885Z,97749
2018-02-11T06:01:20.021Z,97740
2018-02-11T06:03:48.164Z,97733
2018-02-11T06:06:16.293Z,97731
2018-02-11T06:08:50.656Z,97724
2018-02-11T06:11:18.788Z,97720
2018-02-11T06:13:47.699Z,97710
2018-02-11T06:16:15.832Z,97712
2018-02-11T06:18:48.265Z,97704
2018-02-11T06:21:16.392Z,97711
2018-02-11T06:23:45.288Z,97718
2018-02-11T06:26:13.444Z,97720
2018-02-11T06:28:55.464Z,97714
2018-02-11T06:31:23.612Z,97715
2018-02-11T06:33:51.820Z,97706
2018-02-11T06:36:19.968Z,97695
2018-02-11T06:38:48.860Z,97692
2018-02-11T06:41:17.788Z,97688
2018-02-11T06:43:45.916Z,97690
2018-02-11T06:46:14.862Z,97683
2018-02-11T06:48:50.213Z,97690
2018-02-11T06:51:18.405Z,97684
2018-02-11T06:53:46.539Z,97700
2018-02-11T06:56:14.688Z,97697
2018-02-11T06:58:52.719Z,97690
2018-02-11T07:01:20.869Z,97692
2018-02-11T07:03:48.996Z,97699
2018-02-11T07:06:17.137Z,97682
2018-02-11T07:08:52.364Z,97680
2018-02-11T07:11:20.514Z,97666
2018-02-11T07:13:48.677Z,97675
2018-02-11T07:16:17.597Z,97659
2018-02-11T07:18:49.173Z,97654
2018-02-11T07:21:17.332Z,97643
2018-02-11T07:23:45.464Z,97651
2018-02-11T07:26:13.677Z,97653
2018-02-11T07:28:42.869Z,97662
2018-02-11T07:31:11.064Z,97656
2018-02-11T07:33:39.196Z,97662
2018-02-11T07:36:08.118Z,97652
2018-02-11T07:38:40.075Z,97652
2018-02-11T07:41:08.244Z,97647
2018-02-11T07:43:36.372Z,97638
2018-02-11T07:46:04.525Z,97633
2018-02-11T07:48:50.246Z,97628
2018-02-11T07:51:18.400Z,97626
2018-02-11T07:53:46.536Z,97628
2018-02-11T07:56:14.685Z,97625
2018-02-11T07:58:44.837Z,97619
2018-02-11T08:01:12.984Z,97623
2018-02-11T08:03:41.162Z,97618
2018-02-11T08:06:10.069Z,97616
2018-02-11T08:08:38.197Z,97618
2018-02-11T08:11:07.125Z,97612
2018-02-11T08:13:35.264Z,97609
2018-02-11T08:16:04.181Z,97599
2018-02-11T08:18:44.132Z,97602
2018-02-11T08:21:12.288Z,97591
2018-02-11T08:23:40.433Z,97590
2018-02-11T08:26:08.590Z,97593
2018-02-11T08:28:37.651Z,97580
2018-02-11T08:31:05.799Z,97578
2018-02-11T08:33:33.949Z,97576
2018-02-11T08:36:02.149Z,97582
2018-02-11T08:38:39.049Z,97576
2018-02-11T08:41:07.196Z,97568
2018-02-11T08:43:36.093Z,97561
2018-02-11T08:46:04.246Z,97566
2018-02-11T08:48:37.238Z,97566
2018-02-11T08:51:06.193Z,97553
2018-02-11T08:53:34.330Z,97557
2018-02-11T08:56:02.480Z,97545
2018-02-11T08:58:41.548Z,97532
2018-02-11T09:01:09.681Z,97539
2018-02-11T09:03:38.594Z,97542
2018-02-11T09:06:06.720Z,97531
2018-02-11T09:08:34.860Z,97551
2018-02-11T09:11:02.988Z,97547
2018-02-11T09:13:31.896Z,97528
2018-02-11T09:16:00.029Z,97525
2018-02-11T09:18:28.185Z,97530
2018-02-11T09:20:56.327Z,97525
2018-02-11T09:23:24.472Z,97522
2018-02-11T09:25:53.369Z,97528
2018-02-11T09:28:21.508Z,97528
2018-02-11T09:30:49.639Z,97525
2018-02-11T09:33:17.787Z,97534
2018-02-11T09:35:45.928Z,97536
2018-02-11T09:38:14.072Z,97536
2018-02-11T09:40:47.532Z,97524
2018-02-11T09:43:15.677Z,97534
2018-02-11T09:45:43.805Z,97524
2018-02-11T09:48:11.940Z,97537
2018-02-11T09:50:45.356Z,97534
2018-02-11T09:53:13.533Z,97530
2018-02-11T09:55:42.400Z,97531
2018-02-11T09:58:11.349Z,97533
2018-02-11T10:00:53.402Z,97519
2018-02-11T10:03:21.609Z,97513
2018-02-11T10:05:49.739Z,97512
2018-02-11T10:08:18.661Z,97490
2018-02-11T10:10:46.800Z,97500
2018-02-11T10:13:15.697Z,97494
2018-02-11T10:15:44.606Z,97494
2018-02-11T10:18:12.740Z,97487
2018-02-11T10:20:41.664Z,97488
2018-02-11T10:23:09.793Z,97484
2018-02-11T10:25:37.937Z,97479
2018-02-11T10:28:06.064Z,97480
2018-02-11T10:30:34.972Z,97473
2018-02-11T10:33:03.105Z,97464
2018-02-11T10:35:31.252Z,97471
2018-02-11T10:37:59.376Z,97480
2018-02-11T10:40:30.244Z,97487
2018-02-11T10:42:58.373Z,97485
2018-02-11T10:45:27.282Z,97480
2018-02-11T10:47:55.416Z,97480
2018-02-11T10:50:23.560Z,97464
2018-02-11T10:52:51.688Z,97470
2018-02-11T10:55:20.582Z,97469
2018-02-11T10:57:49.496Z,97467
2018-02-11T11:00:19.608Z,97464
2018-02-11T11:02:47.753Z,97452
2018-02-11T11:05:16.652Z,97453
2018-02-11T11:07:45.565Z,97452
2018-02-11T11:10:14.669Z,97449
2018-02-11T11:12:42.814Z,97443
2018-02-11T11:15:11.709Z,97437
2018-02-11T11:17:39.857Z,97431
2018-02-11T11:20:07.984Z,97422
2018-02-11T11:22:36.137Z,97432
2018-02-11T11:25:04.270Z,97432
2018-02-11T11:27:32.430Z,97430
2018-02-11T11:30:01.491Z,97420
2018-02-11T11:32:29.640Z,97421
2018-02-11T11:34:57.782Z,97424
2018-02-11T11:37:25.949Z,97410
2018-02-11T11:40:01.253Z,97413
2018-02-11T11:42:29.397Z,97420
2018-02-11T11:44:58.280Z,97406
2018-02-11T11:47:27.192Z,97413
2018-02-11T11:49:56.302Z,97408
2018-02-11T11:52:24.487Z,97416
2018-02-11T11:54:52.615Z,97416
2018-02-11T11:57:21.516Z,97405
2018-02-11T11:59:54.329Z,97407
2018-02-11T12:02:22.462Z,97403
2018-02-11T12:04:51.377Z,97403
2018-02-11T12:07:19.513Z,97398
2018-02-11T12:09:54.089Z,97394
2018-02-11T12:12:22.284Z,97399
2018-02-11T12:14:50.442Z,97379
2018-02-11T12:17:18.597Z,97382
2018-02-11T12:19:46.748Z,97371
2018-02-11T12:22:15.677Z,97381
2018-02-11T12:24:43.885Z,97383
2018-02-11T12:27:12.071Z,97368
2018-02-11T12:29:41.314Z,97379
2018-02-11T12:32:09.445Z,97370
2018-02-11T12:34:38.362Z,97370
2018-02-11T12:37:06.492Z,97366
2018-02-11T12:39:34.646Z,97361
2018-02-11T12:42:02.777Z,97352
2018-02-11T12:44:30.965Z,97351
2018-02-11T12:46:59.085Z,97352
2018-02-11T12:49:27.293Z,97348
2018-02-11T12:51:55.421Z,97359
2018-02-11T12:54:23.610Z,97352
2018-02-11T12:56:51.740Z,97356
2018-02-11T12:59:32.685Z,97349
2018-02-11T13:02:00.814Z,97351
2018-02-11T13:04:28.993Z,97354
2018-02-11T13:06:57.121Z,97347
2018-02-11T13:09:25.252Z,97348
2018-02-11T13:11:53.397Z,97362
2018-02-11T13:14:21.525Z,97352
2018-02-11T13:16:49.669Z,97348
2018-02-11T13:19:20.541Z,97354
2018-02-11T13:21:48.689Z,97354
2018-02-11T13:24:17.584Z,97352
2018-02-11T13:26:46.498Z,97349
2018-02-11T13:29:21.936Z,97345
2018-02-11T13:31:50.084Z,97347
2018-02-11T13:34:18.209Z,97349
2018-02-11T13:36:46.352Z,97350
2018-02-11T13:39:22.529Z,97354
2018-02-11T13:41:51.525Z,97356
2018-02-11T13:44:19.664Z,97356
2018-02-11T13:46:48.569Z,97350
2018-02-11T13:49:17.716Z,97354
2018-02-11T13:51:45.865Z,97353
2018-02-11T13:54:13.989Z,97338
2018-02-11T13:56:42.900Z,97338
2018-02-11T13:59:11.060Z,97332
2018-02-11T14:01:40.044Z,97340
2018-02-11T14:04:08.944Z,97335
2018-02-11T14:06:37.081Z,97327
2018-02-11T14:09:06.171Z,97323
2018-02-11T14:11:34.289Z,97328
2018-02-11T14:14:02.436Z,97331
2018-02-11T14:16:30.581Z,97335
2018-02-11T14:18:58.737Z,97328
2018-02-11T14:21:26.860Z,97329
2018-02-11T14:23:55.782Z,97337
2018-02-11T14:26:23.917Z,97336
2018-02-11T14:28:52.053Z,97333
2018-02-11T14:31:20.187Z,97336
2018-02-11T14:33:48.349Z,97334
2018-02-11T14:36:17.241Z,97336
2018-02-11T14:38:45.390Z,97338
2018-02-11T14:41:13.521Z,97329
2018-02-11T14:43:41.673Z,97333
2018-02-11T14:46:09.817Z,97335
2018-02-11T14:48:42.567Z,97337
2018-02-11T14:51:10.701Z,97330
2018-02-11T14:53:38.889Z,97328
2018-02-11T14:56:07.077Z,97334
2018-02-11T14:58:37.193Z,97319
2018-02-11T15:01:05.316Z,97322
2018-02-11T15:03:34.213Z,97327
2018-02-11T15:06:03.131Z,97329
2018-02-11T15:08:32.221Z,97323
2018-02-11T15:11:00.366Z,97326
2018-02-11T15:13:29.265Z,97319
2018-02-11T15:15:58.172Z,97317
2018-02-11T15:18:26.294Z,97328
2018-02-11T15:20:54.444Z,97318
2018-02-11T15:23:22.562Z,97328
2018-02-11T15:25:51.477Z,97317
2018-02-11T15:28:19.661Z,97320
2018-02-11T15:30:47.809Z,97315
2018-02-11T15:33:15.950Z,97312
2018-02-11T15:35:44.088Z,97313
2018-02-11T15:38:12.209Z,97317
2018-02-11T15:40:40.358Z,97337
2018-02-11T15:43:08.489Z,97328
2018-02-11T15:45:36.624Z,97326
2018-02-11T15:48:04.759Z,97330
2018-02-11T15:50:34.881Z,97329
2018-02-11T15:53:03.769Z,97315
2018-02-11T15:55:32.678Z,97321
2018-02-11T15:58:00.793Z,97331
2018-02-11T16:00:36.889Z,97342
2018-02-11T16:03:05.024Z,97347
2018-02-11T16:05:33.937Z,97344
2018-02-11T16:08:02.061Z,97342
2018-02-11T16:10:30.201Z,97348
2018-02-11T16:12:58.337Z,97348
2018-02-11T16:15:27.281Z,97342
2018-02-11T16:17:55.405Z,97350
2018-02-11T16:20:25.557Z,97353
2018-02-11T16:22:53.687Z,97351
2018-02-11T16:25:22.598Z,97347
2018-02-11T16:27:50.740Z,97352
2018-02-11T16:30:24.166Z,97349
2018-02-11T16:32:52.326Z,97351
2018-02-11T16:35:21.233Z,97358
2018-02-11T16:37:49.370Z,97364
2018-02-11T16:40:18.361Z,97368
2018-02-11T16:42:46.594Z,97368
2018-02-11T16:45:14.789Z,97368
2018-02-11T16:47:43.037Z,97362
2018-02-11T16:50:13.216Z,97365
2018-02-11T16:52:42.170Z,97370
2018-02-11T16:55:10.336Z,97375
2018-02-11T16:57:38.534Z,97368
2018-02-11T17:00:15.197Z,97379
2018-02-11T17:02:43.437Z,97384
2018-02-11T17:05:12.358Z,97375
2018-02-11T17:07:40.586Z,97378
2018-02-11T17:10:19.685Z,97376
2018-02-11T17:12:47.934Z,97377
2018-02-11T17:15:16.117Z,97372
2018-02-11T17:17:44.331Z,97382
2018-02-11T17:20:20.337Z,97385
2018-02-11T17:22:48.511Z,97379
2018-02-11T17:25:16.703Z,97379
2018-02-11T17:27:44.889Z,97375
2018-02-11T17:30:13.074Z,97379
2018-02-11T17:32:42.088Z,97370
2018-02-11T17:35:10.293Z,97380
2018-02-11T17:37:38.484Z,97385
2018-02-11T17:40:06.641Z,97386
2018-02-11T17:42:34.781Z,97382
2018-02-11T17:45:03.022Z,97380
2018-02-11T17:47:31.219Z,97384
2018-02-11T17:50:01.168Z,97380
2018-02-11T17:52:29.324Z,97376
2018-02-11T17:54:57.504Z,97374
2018-02-11T17:57:25.695Z,97387
2018-02-11T17:59:54.869Z,97380
2018-02-11T18:02:23.046Z,97374
2018-02-11T18:04:51.241Z,97383
2018-02-11T18:07:19.403Z,97385
2018-02-11T18:09:51.560Z,97392
2018-02-11T18:12:19.685Z,97388
2018-02-11T18:14:47.829Z,97373
2018-02-11T18:17:15.953Z,97373
2018-02-11T18:19:44.856Z,97392
2018-02-11T18:22:12.982Z,97382
2018-02-11T18:24:41.141Z,97388
2018-02-11T18:27:09.268Z,97389
2018-02-11T18:30:02.139Z,97400
2018-02-11T18:32:30.272Z,97390
2018-02-11T18:34:58.443Z,97388
2018-02-11T18:37:26.566Z,97393
2018-02-11T18:39:55.613Z,97389
2018-02-11T18:42:23.760Z,97393
2018-02-11T18:44:51.905Z,97387
2018-02-11T18:47:20.049Z,97390
2018-02-11T18:49:57.589Z,97395
2018-02-11T18:52:25.730Z,97399
2018-02-11T18:54:53.886Z,97384
2018-02-11T18:57:22.789Z,97396
2018-02-11T18:59:52.916Z,97394
2018-02-11T19:02:21.063Z,97396
2018-02-11T19:04:49.992Z,97391
2018-02-11T19:07:18.136Z,97397
2018-02-11T19:09:58.617Z,97400
2018-02-11T19:12:26.768Z,97410
2018-02-11T19:14:55.661Z,97413
2018-02-11T19:17:24.571Z,97408
2018-02-11T19:19:54.688Z,97420
2018-02-11T19:22:22.842Z,97426
2018-02-11T19:24:51.729Z,97416
2018-02-11T19:27:19.906Z,97416
2018-02-11T19:29:56.804Z,97420
2018-02-11T19:32:24.961Z,97419
2018-02-11T19:34:53.860Z,97421
2018-02-11T19:37:22.007Z,97429
2018-02-11T19:39:50.133Z,97430
2018-02-11T19:42:18.276Z,97433
2018-02-11T19:44:46.401Z,97443
2018-02-11T19:47:14.548Z,97443
2018-02-11T19:49:42.696Z,97437
2018-02-11T19:52:10.833Z,97437
2018-02-11T19:54:38.953Z,97440
2018-02-11T19:57:07.145Z,97438
2018-02-11T19:59:53.397Z,97440
2018-02-11T20:02:22.300Z,97448
2018-02-11T20:04:50.426Z,97452
2018-02-11T20:07:18.566Z,97450
2018-02-11T20:09:46.709Z,97452
2018-02-11T20:12:15.619Z,97463
2018-02-11T20:14:43.753Z,97465
2018-02-11T20:17:11.918Z,97470
2018-02-11T20:19:40.051Z,97462
2018-02-11T20:22:08.192Z,97465
2018-02-11T20:24:36.315Z,97469
2018-02-11T20:27:04.493Z,97474
2018-02-11T20:29:32.634Z,97470
2018-02-11T20:32:00.757Z,97474
2018-02-11T20:34:28.901Z,97476
2018-02-11T20:36:57.025Z,97483
2018-02-11T20:39:36.402Z,97476
2018-02-11T20:42:04.525Z,97487
2018-02-11T20:44:33.448Z,97490
2018-02-11T20:47:01.574Z,97492
2018-02-11T20:49:37.056Z,97493
2018-02-11T20:52:05.176Z,97497
2018-02-11T20:54:33.319Z,97499
2018-02-11T20:57:01.444Z,97501
2018-02-11T20:59:29.597Z,97509
2018-02-11T21:01:57.725Z,97503
2018-02-11T21:04:25.870Z,97513
2018-02-11T21:06:54.780Z,97505
2018-02-11T21:09:23.917Z,97520
2018-02-11T21:11:52.041Z,97515
2018-02-11T21:14:20.976Z,97515
2018-02-11T21:16:49.093Z,97520
2018-02-11T21:19:26.641Z,97524
2018-02-11T21:21:54.778Z,97524
2018-02-11T21:24:22.927Z,97522
2018-02-11T21:26:51.832Z,97522
2018-02-11T21:29:30.389Z,97533
2018-02-11T21:31:58.521Z,97533
2018-02-11T21:34:27.428Z,97528
2018-02-11T21:36:55.601Z,97537
2018-02-11T21:39:24.519Z,97537
2018-02-11T21:41:52.644Z,97532
2018-02-11T21:44:21.554Z,97533
2018-02-11T21:46:49.701Z,97546
2018-02-11T21:49:21.921Z,97537
2018-02-11T21:51:50.049Z,97538
2018-02-11T21:54:18.204Z,97538
2018-02-11T21:56:46.328Z,97546
2018-02-11T21:59:24.240Z,97544
2018-02-11T22:01:52.364Z,97554
2018-02-11T22:04:21.276Z,97564
2018-02-11T22:06:49.398Z,97551
2018-02-11T22:09:21.225Z,97567
2018-02-11T22:11:49.384Z,97565
2018-02-11T22:14:18.261Z,97561
2018-02-11T22:16:47.162Z,97566
2018-02-11T22:19:15.297Z,97569
2018-02-11T22:21:44.216Z,97575
2018-02-11T22:24:13.100Z,97572
2018-02-11T22:26:42.057Z,97583
2018-02-11T22:29:11.121Z,97585
2018-02-11T22:31:39.264Z,97579
2018-02-11T22:34:08.153Z,97585
2018-02-11T22:36:37.060Z,97580
2018-02-11T22:39:06.153Z,97592
2018-02-11T22:41:34.301Z,97582
2018-02-11T22:44:03.196Z,97572
2018-02-11T22:46:32.101Z,97577
2018-02-11T22:49:00.220Z,97582
2018-02-11T22:51:28.368Z,97582
2018-02-11T22:53:56.493Z,97586
2018-02-11T22:56:24.628Z,97594
2018-02-11T22:59:01.705Z,97585
2018-02-11T23:01:29.889Z,97594
2018-02-11T23:03:58.034Z,97585
2018-02-11T23:06:26.165Z,97592
2018-02-11T23:09:06.120Z,97590
2018-02-11T23:11:35.101Z,97588
2018-02-11T23:14:03.274Z,97596
2018-02-11T23:16:31.532Z,97592
2018-02-11T23:19:14.629Z,97603
2018-02-11T23:21:42.774Z,97607
2018-02-11T23:24:10.945Z,97605
2018-02-11T23:26:39.893Z,97609
2018-02-11T23:29:12.257Z,97618
2018-02-11T23:31:40.433Z,97620
2018-02-11T23:34:08.682Z,97612
2018-02-11T23:36:36.855Z,97613
2018-02-11T23:39:22.628Z,97617
2018-02-11T23:41:50.762Z,97608
2018-02-11T23:44:18.904Z,97613
2018-02-11T23:46:47.034Z,97624
2018-02-11T23:49:20.988Z,97619
2018-02-11T23:51:49.116Z,97625
2018-02-11T23:54:18.061Z,97625
2018-02-11T23:56:46.188Z,97619
2018-02-11T23:59:24.736Z,97612
